createdAt,value
2019-05-06T00:01:37.945Z,99.90
2019-05-06T00:06:45.056Z,99.90
2019-05-06T00:11:54.111Z,99.90
2019-05-06T00:17:00.882Z,99.90
2019-05-06T00:22:07.917Z,99.90
2019-05-06T00:27:20.494Z,99.90
2019-05-06T00:32:27.680Z,99.90
2019-05-06T00:37:35.064Z,99.90
2019-05-06T00:43:04.809Z,99.90
2019-05-06T00:48:13.987Z,99.90
2019-05-06T00:53:23.827Z,99.90
2019-05-06T00:58:31.003Z,99.90
2019-05-06T01:03:38.709Z,99.90
2019-05-06T01:08:45.986Z,99.90
2019-05-06T01:14:18.396Z,99.90
2019-05-06T01:19:25.899Z,99.90
2019-05-06T01:24:34.501Z,99.90
2019-05-06T01:29:44.028Z,99.90
2019-05-06T01:34:50.791Z,99.90
2019-05-06T01:40:18.056Z,99.90
2019-05-06T01:45:25.479Z,99.90
2019-05-06T01:50:34.431Z,99.90
2019-05-06T01:55:43.727Z,99.90
2019-05-06T02:00:51.077Z,99.90
2019-05-06T02:05:58.272Z,99.90
2019-05-06T02:11:05.984Z,99.90
2019-05-06T02:16:14.562Z,99.90
2019-05-06T02:21:40.848Z,99.90
2019-05-06T02:26:47.972Z,99.90
2019-05-06T02:32:24.801Z,99.90
2019-05-06T02:37:31.215Z,99.90
2019-05-06T02:42:38.313Z,99.90
2019-05-06T02:47:54.430Z,99.90
2019-05-06T02:53:03.046Z,99.90
2019-05-06T02:58:10.244Z,99.90
2019-05-06T03:03:17.328Z,99.90
2019-05-06T03:08:24.727Z,99.90
2019-05-06T03:13:33.898Z,99.90
2019-05-06T03:18:43.142Z,99.90
2019-05-06T03:23:55.023Z,99.90
2019-05-06T03:29:02.918Z,99.90
2019-05-06T03:34:35.895Z,99.90
2019-05-06T03:39:19.263Z,99.90
2019-05-06T03:44:26.374Z,99.90
2019-05-06T03:49:35.951Z,99.90
2019-05-06T03:54:45.351Z,99.90
2019-05-06T03:59:55.239Z,99.90
2019-05-06T04:05:03.920Z,99.90
2019-05-06T04:10:13.712Z,99.90
2019-05-06T04:15:22.947Z,99.90
2019-05-06T04:20:45.663Z,99.90
2019-05-06T04:26:03.475Z,99.90
2019-05-06T04:31:09.833Z,99.90
2019-05-06T04:36:17.062Z,99.90
2019-05-06T04:41:26.606Z,99.90
2019-05-06T04:46:34.891Z,99.90
2019-05-06T04:51:43.103Z,99.90
2019-05-06T04:56:53.531Z,99.90
2019-05-06T05:02:02.498Z,99.90
2019-05-06T05:07:08.397Z,99.90
2019-05-06T05:12:24.828Z,99.90
2019-05-06T05:17:44.094Z,99.90
2019-05-06T05:22:52.837Z,99.90
2019-05-06T05:28:02.032Z,99.90
2019-05-06T05:33:11.678Z,99.90
2019-05-06T05:38:19.112Z,99.90
2019-05-06T05:43:52.666Z,99.90
2019-05-06T05:49:21.747Z,99.40
2019-05-06T05:54:27.258Z,96.90
2019-05-06T05:59:34.450Z,96.60
2019-05-06T06:04:53.870Z,96.30
2019-05-06T06:09:59.360Z,96.00
2019-05-06T06:15:26.204Z,95.30
2019-05-06T06:20:52.762Z,94.40
2019-05-06T06:26:03.687Z,92.90
2019-05-06T06:31:22.859Z,91.50
2019-05-06T06:36:45.261Z,88.60
2019-05-06T06:41:52.491Z,89.10
2019-05-06T06:47:01.918Z,84.80
2019-05-06T06:52:11.498Z,83.40
2019-05-06T06:57:35.507Z,80.50
2019-05-06T07:02:47.076Z,80.60
2019-05-06T07:07:54.428Z,79.90
2019-05-06T07:13:03.118Z,79.10
2019-05-06T07:18:13.286Z,78.80
2019-05-06T07:23:27.460Z,77.90
2019-05-06T07:28:34.551Z,77.40
2019-05-06T07:33:42.943Z,74.80
2019-05-06T07:38:52.406Z,70.00
2019-05-06T07:44:34.860Z,69.90
2019-05-06T07:49:43.205Z,66.50
2019-05-06T07:54:53.173Z,58.80
2019-05-06T07:59:59.386Z,59.30
2019-05-06T08:05:07.669Z,59.20
2019-05-06T08:10:16.424Z,63.00
2019-05-06T08:15:23.589Z,55.50
2019-05-06T08:20:39.925Z,55.40
2019-05-06T08:25:49.187Z,53.50
2019-05-06T08:30:56.293Z,53.80
2019-05-06T08:36:11.573Z,53.10
2019-05-06T08:41:15.869Z,52.10
2019-05-06T08:46:23.619Z,53.10
2019-05-06T08:51:53.944Z,52.00
2019-05-06T08:57:02.592Z,50.90
2019-05-06T09:02:09.992Z,49.60
2019-05-06T09:07:18.158Z,48.50
2019-05-06T09:12:25.286Z,49.00
2019-05-06T09:17:33.013Z,49.00
2019-05-06T09:22:40.279Z,47.90
2019-05-06T09:27:54.836Z,48.30
2019-05-06T09:33:02.609Z,48.10
2019-05-06T09:38:09.786Z,47.80
2019-05-06T09:43:17.053Z,47.10
2019-05-06T09:48:42.481Z,47.20
2019-05-06T09:54:12.944Z,48.30
2019-05-06T09:59:22.010Z,48.80
2019-05-06T10:04:29.756Z,48.90
2019-05-06T10:09:36.980Z,46.80
2019-05-06T10:14:44.064Z,48.50
2019-05-06T10:19:51.272Z,49.40
2019-05-06T10:24:58.383Z,50.20
2019-05-06T10:30:09.361Z,49.90
2019-05-06T10:35:18.693Z,49.90
2019-05-06T10:40:32.959Z,50.60
2019-05-06T10:45:40.195Z,49.90
2019-05-06T10:50:52.053Z,50.20
2019-05-06T10:56:02.878Z,50.20
2019-05-06T11:01:32.956Z,50.40
2019-05-06T11:06:39.232Z,47.90
2019-05-06T11:11:46.307Z,48.30
2019-05-06T11:16:53.408Z,49.50
2019-05-06T11:22:03.376Z,48.90
2019-05-06T11:27:25.218Z,48.70
2019-05-06T11:32:55.670Z,47.10
2019-05-06T11:38:06.407Z,46.70
2019-05-06T11:43:13.743Z,43.10
2019-05-06T11:48:22.215Z,42.20
2019-05-06T11:53:32.596Z,43.30
2019-05-06T11:58:54.570Z,44.90
2019-05-06T12:04:02.700Z,44.50
2019-05-06T12:09:16.361Z,44.10
2019-05-06T12:14:19.854Z,42.10
2019-05-06T12:19:27.635Z,41.00
2019-05-06T12:24:34.829Z,41.00
2019-05-06T12:29:42.854Z,42.00
2019-05-06T12:34:52.449Z,43.10
2019-05-06T12:40:03.232Z,41.00
2019-05-06T12:45:27.819Z,39.20
2019-05-06T12:50:35.031Z,40.30
2019-05-06T12:55:43.094Z,42.40
2019-05-06T13:00:53.986Z,41.80
2019-05-06T13:06:06.688Z,43.00
2019-05-06T13:11:09.099Z,42.60
2019-05-06T13:16:17.054Z,38.30
2019-05-06T13:21:24.232Z,38.20
2019-05-06T13:26:32.551Z,38.40
2019-05-06T13:31:39.813Z,40.30
2019-05-06T13:36:47.311Z,40.50
2019-05-06T13:41:56.023Z,39.30
2019-05-06T13:47:04.363Z,37.70
2019-05-06T13:52:18.243Z,34.10
2019-05-06T13:57:25.334Z,32.60
2019-05-06T14:03:01.984Z,30.30
2019-05-06T14:08:09.713Z,31.40
2019-05-06T14:13:16.933Z,33.90
2019-05-06T14:18:24.016Z,35.20
2019-05-06T14:23:32.715Z,34.90
2019-05-06T14:28:45.100Z,32.50
2019-05-06T14:33:52.355Z,33.20
2019-05-06T14:39:04.641Z,35.10
2019-05-06T14:44:12.107Z,36.20
2019-05-06T14:49:18.977Z,34.50
2019-05-06T14:54:26.048Z,34.80
2019-05-06T14:59:33.188Z,36.90
2019-05-06T15:04:43.194Z,38.20
2019-05-06T15:09:58.432Z,38.80
2019-05-06T15:14:57.794Z,39.40
2019-05-06T15:20:06.846Z,40.00
2019-05-06T15:25:14.388Z,38.60
2019-05-06T15:30:28.187Z,34.40
2019-05-06T15:35:52.844Z,30.00
2019-05-06T15:40:59.951Z,29.00
2019-05-06T15:46:07.672Z,30.30
2019-05-06T15:51:14.815Z,30.00
2019-05-06T15:56:23.082Z,32.90
2019-05-06T16:01:33.981Z,35.70
2019-05-06T16:06:44.434Z,38.30
2019-05-06T16:11:48.898Z,40.00
2019-05-06T16:16:56.014Z,41.90
2019-05-06T16:22:04.086Z,43.90
2019-05-06T16:27:12.410Z,44.90
2019-05-06T16:32:21.848Z,47.30
2019-05-06T16:37:28.876Z,48.60
2019-05-06T16:42:35.974Z,50.80
2019-05-06T16:47:44.819Z,52.10
2019-05-06T16:52:52.583Z,52.40
2019-05-06T16:58:05.350Z,53.10
2019-05-06T17:03:23.671Z,53.80
2019-05-06T17:08:33.316Z,54.10
2019-05-06T17:13:39.643Z,54.80
2019-05-06T17:18:46.769Z,53.60
2019-05-06T17:23:53.912Z,51.60
2019-05-06T17:29:25.327Z,49.90
2019-05-06T17:34:35.894Z,50.60
2019-05-06T17:39:43.482Z,51.80
2019-05-06T17:44:50.704Z,53.10
2019-05-06T17:49:57.856Z,55.80
2019-05-06T17:55:06.495Z,60.10
2019-05-06T18:00:14.538Z,68.50
2019-05-06T18:05:22.816Z,79.40
2019-05-06T18:10:30.021Z,90.20
2019-05-06T18:15:37.174Z,92.50
2019-05-06T18:20:44.677Z,93.80
2019-05-06T18:25:52.453Z,94.90
2019-05-06T18:31:02.922Z,95.90
2019-05-06T18:36:09.508Z,97.00
2019-05-06T18:41:16.744Z,97.80
2019-05-06T18:46:23.831Z,98.80
2019-05-06T18:51:31.236Z,99.80
2019-05-06T18:56:38.492Z,99.90
2019-05-06T19:01:45.618Z,99.90
2019-05-06T19:07:08.776Z,99.90
2019-05-06T19:12:03.554Z,99.90
2019-05-06T19:17:10.496Z,99.90
2019-05-06T19:22:17.632Z,99.90
2019-05-06T19:27:25.035Z,99.90
2019-05-06T19:32:34.929Z,99.90
2019-05-06T19:37:41.390Z,99.90
2019-05-06T19:42:50.244Z,99.90
2019-05-06T19:47:57.201Z,99.90
2019-05-06T19:53:04.342Z,99.90
2019-05-06T19:58:12.978Z,99.90
2019-05-06T20:03:23.130Z,99.90
2019-05-06T20:08:45.387Z,99.90
2019-05-06T20:13:52.609Z,99.90
2019-05-06T20:19:02.139Z,99.90
2019-05-06T20:24:09.609Z,99.90
2019-05-06T20:29:16.738Z,99.90
2019-05-06T20:34:24.851Z,99.90
2019-05-06T20:39:32.511Z,99.90
2019-05-06T20:44:39.647Z,99.90
2019-05-06T20:49:46.742Z,99.90
2019-05-06T20:54:53.842Z,99.90
2019-05-06T21:00:03.447Z,99.90
2019-05-06T21:05:10.843Z,99.90
2019-05-06T21:10:18.985Z,99.90
2019-05-06T21:15:26.196Z,99.90
2019-05-06T21:20:33.562Z,99.90
2019-05-06T21:25:42.922Z,99.90
2019-05-06T21:30:49.478Z,99.90
2019-05-06T21:35:56.537Z,99.90
2019-05-06T21:41:03.605Z,99.90
2019-05-06T21:46:12.984Z,99.90
2019-05-06T21:51:22.086Z,99.90
2019-05-06T21:56:28.704Z,99.90
2019-05-06T22:01:36.911Z,99.90
2019-05-06T22:06:45.592Z,99.90
2019-05-06T22:11:53.225Z,99.90
2019-05-06T22:17:03.890Z,99.90
2019-05-06T22:22:12.031Z,99.90
2019-05-06T22:27:22.016Z,99.90
2019-05-06T22:32:29.567Z,99.90
2019-05-06T22:37:36.849Z,99.90
2019-05-06T22:42:44.663Z,99.90
2019-05-06T22:47:56.731Z,99.90
2019-05-06T22:53:04.277Z,99.90
2019-05-06T22:58:12.037Z,99.90
2019-05-06T23:03:22.701Z,99.90
2019-05-06T23:08:32.329Z,99.90
2019-05-06T23:13:38.996Z,99.90
2019-05-06T23:18:46.118Z,99.90
2019-05-06T23:23:54.707Z,99.90
2019-05-06T23:29:02.564Z,99.90
2019-05-06T23:34:09.722Z,99.90
2019-05-06T23:40:03.332Z,99.90
2019-05-06T23:45:45.626Z,99.90
2019-05-06T23:51:28.498Z,99.90
2019-05-06T23:56:43.823Z,99.90
